Time;durP1;ratioP1;P1;durP2;ratioP2;P2;SDS_P1;SDS_P2;PMS_P1;PMS_P2;Temp;Humidity;BMP_temperature;BMP_pressure;BME280_temperature;BME280_humidity;BME280_pressure;Samples;Min_cycle;Max_cycle;Signal;HPM_P1;HPM_P2
2023/12/06 00:00:44;;;;;;;21.33;11.50;;;2.20;99.90;;;;;;4916944;29;20054;-80
2023/12/06 00:03:11;;;;;;;26.88;12.85;;;2.20;99.90;;;;;;4918186;29;20130;-80
2023/12/06 00:05:39;;;;;;;29.88;14.63;;;2.20;99.90;;;;;;4903548;29;20072;-80
2023/12/06 00:08:07;;;;;;;27.52;13.23;;;2.20;99.90;;;;;;4932547;29;20040;-80
2023/12/06 00:10:34;;;;;;;26.80;12.38;;;2.20;99.90;;;;;;4916718;29;20051;-80
2023/12/06 00:13:01;;;;;;;26.33;13.77;;;2.10;99.90;;;;;;4917021;29;20047;-80
2023/12/06 00:15:28;;;;;;;27.55;13.65;;;2.20;99.90;;;;;;4916620;29;20147;-80
2023/12/06 00:17:55;;;;;;;30.70;16.10;;;2.10;99.90;;;;;;4932615;29;20044;-80
2023/12/06 00:20:22;;;;;;;26.70;14.82;;;2.10;99.90;;;;;;4932217;29;20054;-80
2023/12/06 00:22:53;;;;;;;27.02;14.13;;;2.10;99.90;;;;;;4901028;29;20044;-80
2023/12/06 00:25:20;;;;;;;25.90;13.48;;;2.20;99.90;;;;;;4901006;29;20461;-80
2023/12/06 00:27:47;;;;;;;26.08;13.88;;;2.20;99.90;;;;;;4931989;29;20040;-79
2023/12/06 00:30:14;;;;;;;22.58;12.52;;;2.20;99.90;;;;;;4885167;29;20051;-80
2023/12/06 00:32:42;;;;;;;25.33;13.27;;;2.20;99.90;;;;;;4916572;29;20071;-80
2023/12/06 00:35:10;;;;;;;19.77;10.50;;;2.20;99.90;;;;;;4916307;29;20048;-80
2023/12/06 00:37:37;;;;;;;22.98;11.70;;;2.20;99.90;;;;;;4915950;29;20056;-79
2023/12/06 00:40:05;;;;;;;25.45;12.90;;;2.20;99.90;;;;;;4916447;29;20398;-81
2023/12/06 00:42:32;;;;;;;24.65;12.07;;;2.20;99.90;;;;;;4900619;29;20052;-80
2023/12/06 00:44:59;;;;;;;26.13;12.77;;;2.20;99.90;;;;;;4916129;29;20048;-80
2023/12/06 00:47:26;;;;;;;24.45;12.50;;;2.20;99.90;;;;;;4900344;29;20044;-80
2023/12/06 00:49:54;;;;;;;25.33;13.07;;;2.20;99.90;;;;;;4885471;29;20045;-80
2023/12/06 00:52:21;;;;;;;24.25;12.15;;;2.30;99.90;;;;;;4884808;29;20143;-80
2023/12/06 00:54:49;;;;;;;22.98;12.13;;;2.30;99.90;;;;;;4931736;29;20051;-80
2023/12/06 00:57:16;;;;;;;25.55;12.50;;;2.30;99.90;;;;;;4885116;29;20054;-80
2023/12/06 00:59:43;;;;;;;30.23;15.30;;;2.30;99.90;;;;;;4900357;29;20544;-80
2023/12/06 01:02:10;;;;;;;29.20;15.30;;;2.30;99.90;;;;;;4915651;29;20040;-81
2023/12/06 01:04:37;;;;;;;25.90;13.80;;;2.30;99.90;;;;;;4900394;29;20051;-80
2023/12/06 01:07:04;;;;;;;30.48;15.25;;;2.30;99.90;;;;;;4915535;29;20051;-80
2023/12/06 01:09:32;;;;;;;29.33;14.45;;;2.30;99.90;;;;;;4900003;29;20058;-80
2023/12/06 01:11:59;;;;;;;29.17;14.33;;;2.30;99.90;;;;;;4915542;29;20054;-80
2023/12/06 01:14:26;;;;;;;25.65;13.63;;;2.30;99.90;;;;;;4931678;29;20572;-80
2023/12/06 01:16:53;;;;;;;26.13;14.48;;;2.30;99.90;;;;;;4869295;29;20048;-80
2023/12/06 01:19:20;;;;;;;26.48;14.52;;;2.30;99.90;;;;;;4899992;29;20040;-80
2023/12/06 01:21:47;;;;;;;31.27;16.85;;;2.30;99.90;;;;;;4884547;29;20134;-79
2023/12/06 01:24:14;;;;;;;28.23;15.20;;;2.30;99.90;;;;;;4932680;29;20044;-80
2023/12/06 01:26:41;;;;;;;23.98;12.75;;;2.30;99.90;;;;;;4915557;29;20063;-80
2023/12/06 01:29:09;;;;;;;26.30;14.05;;;2.30;99.90;;;;;;4884659;29;20055;-80
2023/12/06 01:31:36;;;;;;;22.25;12.43;;;2.30;99.90;;;;;;4931320;29;20056;-79
2023/12/06 01:34:03;;;;;;;22.30;11.00;;;2.30;99.90;;;;;;4884428;29;20070;-80
2023/12/06 01:36:30;;;;;;;22.70;12.80;;;2.30;99.90;;;;;;4931204;29;20044;-79
2023/12/06 01:38:57;;;;;;;29.83;16.40;;;2.30;99.90;;;;;;4884291;29;20048;-80
2023/12/06 01:41:24;;;;;;;31.20;15.38;;;2.30;99.90;;;;;;4915439;29;20063;-80
2023/12/06 01:43:51;;;;;;;28.20;14.20;;;2.30;99.90;;;;;;4931168;29;20048;-80
2023/12/06 01:46:19;;;;;;;27.63;13.60;;;2.30;99.90;;;;;;4915174;29;20053;-80
2023/12/06 01:48:48;;;;;;;26.77;13.65;;;2.40;99.90;;;;;;4917670;29;20119;-79
2023/12/06 01:51:17;;;;;;;24.90;12.68;;;2.40;99.90;;;;;;4919046;29;20107;-79
2023/12/06 01:53:45;;;;;;;24.98;13.32;;;2.40;99.90;;;;;;4919157;29;20115;-80
2023/12/06 01:56:12;;;;;;;24.83;12.90;;;2.40;99.90;;;;;;4887910;29;20052;-79
2023/12/06 01:58:40;;;;;;;24.75;11.90;;;2.40;99.90;;;;;;4920187;29;20485;-79
2023/12/06 02:01:07;;;;;;;21.70;10.95;;;2.40;99.90;;;;;;4934926;29;20405;-79
2023/12/06 02:03:35;;;;;;;22.83;11.32;;;2.40;99.90;;;;;;4934933;29;20055;-79
2023/12/06 02:06:04;;;;;;;23.42;10.65;;;2.50;99.90;;;;;;4918931;29;20557;-80
2023/12/06 02:08:34;;;;;;;22.98;11.77;;;2.50;99.90;;;;;;4887835;29;20044;-80
2023/12/06 02:11:01;;;;;;;27.50;14.00;;;2.50;99.90;;;;;;4934560;29;20048;-79
2023/12/06 02:13:28;;;;;;;27.00;13.80;;;2.50;99.90;;;;;;4903241;29;20048;-79
2023/12/06 02:15:56;;;;;;;25.92;13.73;;;2.50;99.90;;;;;;4918690;29;20048;-80
2023/12/06 02:18:25;;;;;;;26.13;13.30;;;2.50;99.90;;;;;;4919201;29;20060;-80
2023/12/06 02:20:53;;;;;;;30.00;14.73;;;2.60;99.90;;;;;;4934649;29;20099;-80
2023/12/06 02:23:29;;;;;;;25.25;13.07;;;2.60;99.90;;;;;;4919801;29;20042;-79
2023/12/06 02:25:57;;;;;;;26.42;14.73;;;2.60;99.90;;;;;;4928107;29;20064;-80
2023/12/06 02:28:24;;;;;;;29.10;14.57;;;2.60;99.90;;;;;;4903225;29;20048;-80
2023/12/06 02:30:51;;;;;;;28.80;15.05;;;2.60;99.90;;;;;;4934209;29;20059;-79
2023/12/06 02:33:18;;;;;;;31.17;15.30;;;2.60;99.90;;;;;;4918565;29;20083;-79
2023/12/06 02:35:50;;;;;;;29.10;13.88;;;2.60;99.90;;;;;;4934332;29;20432;-79
2023/12/06 02:38:19;;;;;;;25.02;13.20;;;2.70;99.90;;;;;;4934158;29;20143;-80
2023/12/06 02:40:49;;;;;;;25.05;14.20;;;2.70;99.90;;;;;;4934131;28;20497;-80
2023/12/06 02:43:16;;;;;;;26.55;14.38;;;2.70;99.90;;;;;;4918338;29;20052;-80
2023/12/06 02:45:44;;;;;;;26.15;13.35;;;2.70;99.90;;;;;;4934041;29;20544;-80
2023/12/06 02:48:11;;;;;;;31.17;14.60;;;2.70;99.90;;;;;;4902981;29;20040;-79
2023/12/06 02:50:38;;;;;;;30.15;15.25;;;2.80;99.90;;;;;;4918232;29;20155;-79
2023/12/06 02:53:05;;;;;;;28.10;12.93;;;2.80;99.90;;;;;;4902481;29;20124;-80
2023/12/06 02:55:32;;;;;;;25.85;12.45;;;2.80;99.90;;;;;;4902366;29;20100;-80
2023/12/06 02:57:59;;;;;;;24.20;12.73;;;2.80;99.90;;;;;;4918310;29;20055;-80
2023/12/06 03:00:26;;;;;;;23.58;11.80;;;2.80;99.90;;;;;;4902005;29;20052;-80
2023/12/06 03:02:53;;;;;;;25.48;13.73;;;2.80;99.90;;;;;;4917752;29;20043;-81
2023/12/06 03:05:20;;;;;;;25.75;13.20;;;2.80;99.90;;;;;;4933695;29;20048;-81
2023/12/06 03:07:47;;;;;;;28.48;14.65;;;2.80;99.90;;;;;;4918039;29;20054;-80
2023/12/06 03:10:14;;;;;;;29.45;15.43;;;2.80;99.90;;;;;;4902087;29;20052;-80
2023/12/06 03:12:41;;;;;;;28.65;14.80;;;2.80;99.90;;;;;;4917872;29;20075;-81
2023/12/06 03:15:08;;;;;;;31.80;15.75;;;2.80;99.90;;;;;;4902119;29;20048;-80
2023/12/06 03:17:35;;;;;;;29.60;15.10;;;2.80;99.90;;;;;;4919754;29;20036;-80
2023/12/06 03:20:06;;;;;;;27.23;12.75;;;2.80;99.90;;;;;;4933305;29;20040;-80
2023/12/06 03:22:33;;;;;;;26.17;12.77;;;2.80;99.90;;;;;;4933550;29;20382;-80
2023/12/06 03:25:00;;;;;;;26.42;13.43;;;2.90;99.90;;;;;;4933131;29;20449;-79
2023/12/06 03:27:27;;;;;;;24.80;13.68;;;2.90;99.90;;;;;;4901897;29;20139;-79
2023/12/06 03:29:54;;;;;;;32.85;16.45;;;2.90;99.90;;;;;;4886272;29;20056;-80
2023/12/06 03:32:21;;;;;;;28.20;15.38;;;2.90;99.90;;;;;;4917413;29;20044;-80
2023/12/06 03:34:48;;;;;;;30.95;16.38;;;2.90;99.90;;;;;;4886018;29;20048;-79
2023/12/06 03:37:18;;;;;;;31.95;16.15;;;2.90;99.90;;;;;;4916986;29;20055;-80
2023/12/06 03:39:46;;;;;;;28.75;15.68;;;2.90;99.90;;;;;;4908496;29;20055;-80
2023/12/06 03:42:13;;;;;;;27.40;14.63;;;2.90;99.90;;;;;;4917345;29;20048;-80
2023/12/06 03:44:41;;;;;;;29.73;14.70;;;2.90;99.90;;;;;;4917195;29;20052;-80
2023/12/06 03:47:08;;;;;;;24.95;13.30;;;2.90;99.90;;;;;;4901709;29;20500;-80
2023/12/06 03:49:36;;;;;;;29.02;15.00;;;2.90;99.90;;;;;;4917163;29;20044;-80
2023/12/06 03:52:04;;;;;;;25.25;13.18;;;2.90;99.90;;;;;;4917052;29;20052;-79
2023/12/06 03:54:31;;;;;;;23.58;11.82;;;3.00;99.90;;;;;;4886255;29;20060;-80
2023/12/06 03:56:59;;;;;;;24.20;11.95;;;2.90;99.90;;;;;;4932701;29;20047;-81
2023/12/06 03:59:26;;;;;;;22.60;12.45;;;3.00;99.90;;;;;;4932807;29;20048;-80
2023/12/06 04:01:53;;;;;;;28.27;14.98;;;3.00;99.90;;;;;;4916867;29;20596;-80
2023/12/06 04:04:20;;;;;;;30.52;15.13;;;3.00;99.90;;;;;;4932457;29;20054;-80
2023/12/06 04:06:47;;;;;;;26.23;13.77;;;3.00;99.90;;;;;;4916651;29;20457;-80
2023/12/06 04:09:14;;;;;;;22.63;12.32;;;3.00;99.90;;;;;;4916727;29;20095;-80
2023/12/06 04:11:41;;;;;;;28.35;15.10;;;3.00;99.90;;;;;;4885336;29;20055;-80
2023/12/06 04:14:08;;;;;;;24.48;13.40;;;3.00;99.90;;;;;;4885543;29;20060;-80
2023/12/06 04:16:37;;;;;;;28.35;14.93;;;3.00;99.90;;;;;;4885565;29;20048;-80
2023/12/06 04:19:04;;;;;;;26.23;13.65;;;3.00;99.90;;;;;;4932344;29;20047;-80
2023/12/06 04:21:31;;;;;;;26.30;13.57;;;3.10;99.90;;;;;;4901000;29;20591;-80
2023/12/06 04:23:58;;;;;;;28.77;15.18;;;3.10;99.90;;;;;;4916346;29;20036;-79
2023/12/06 04:26:25;;;;;;;29.05;15.25;;;3.10;99.90;;;;;;4885616;29;20048;-79
2023/12/06 04:28:52;;;;;;;32.00;16.95;;;3.10;99.90;;;;;;4901250;29;20047;-80
2023/12/06 04:31:19;;;;;;;29.23;16.77;;;3.10;99.90;;;;;;4913307;29;20443;-80
2023/12/06 04:33:46;;;;;;;31.90;17.70;;;3.10;99.90;;;;;;4897317;29;20473;-79
2023/12/06 04:36:13;;;;;;;31.60;17.63;;;3.10;99.90;;;;;;4921559;29;20083;-79
2023/12/06 04:38:40;;;;;;;28.33;14.45;;;3.10;99.90;;;;;;4908801;29;20059;-80
2023/12/06 04:41:08;;;;;;;24.23;14.32;;;3.10;99.90;;;;;;4918789;29;20048;-80
2023/12/06 04:43:35;;;;;;;29.05;15.20;;;3.20;99.90;;;;;;4937239;29;20039;-80
2023/12/06 04:46:02;;;;;;;29.00;15.18;;;3.20;99.90;;;;;;4951184;29;20071;-80
2023/12/06 04:48:29;;;;;;;29.10;15.63;;;3.20;99.90;;;;;;4937475;29;20099;-80
2023/12/06 04:50:56;;;;;;;24.02;12.80;;;3.20;99.90;;;;;;4941069;29;20115;-81
2023/12/06 04:53:26;;;;;;;20.35;11.68;;;3.20;99.90;;;;;;4914340;29;20060;-80
2023/12/06 04:55:54;;;;;;;23.95;14.88;;;3.20;99.90;;;;;;4893780;29;20055;-80
2023/12/06 04:58:20;;;;;;;23.83;12.40;;;3.20;99.90;;;;;;4904763;29;20052;-79
2023/12/06 05:00:48;;;;;;;24.58;13.60;;;3.20;99.90;;;;;;4938649;29;20079;-80
2023/12/06 05:03:15;;;;;;;23.70;13.13;;;3.20;99.90;;;;;;4903752;29;20051;-80
2023/12/06 05:05:42;;;;;;;26.17;15.13;;;3.30;99.90;;;;;;4900294;29;20123;-80
2023/12/06 05:08:09;;;;;;;25.80;13.55;;;3.30;99.90;;;;;;4915730;29;20048;-81
2023/12/06 05:10:36;;;;;;;21.92;12.60;;;3.20;99.90;;;;;;4935527;29;20051;-80
2023/12/06 05:13:03;;;;;;;18.30;11.18;;;3.30;99.90;;;;;;4924831;28;20052;-80
2023/12/06 05:15:30;;;;;;;22.17;12.18;;;3.30;99.90;;;;;;4933671;29;20449;-80
2023/12/06 05:17:57;;;;;;;22.40;11.20;;;3.30;99.90;;;;;;4895244;29;20510;-80
2023/12/06 05:20:24;;;;;;;19.20;11.50;;;3.30;99.90;;;;;;4890932;29;20103;-80
2023/12/06 05:22:51;;;;;;;20.40;10.90;;;3.30;99.90;;;;;;4942285;29;20047;-80
2023/12/06 05:25:19;;;;;;;18.95;10.18;;;3.30;99.90;;;;;;4935775;29;20044;-80
2023/12/06 05:27:46;;;;;;;20.88;11.40;;;3.30;99.90;;;;;;4898486;29;20086;-80
2023/12/06 05:30:14;;;;;;;20.63;12.52;;;3.30;99.90;;;;;;4915707;29;20056;-81
2023/12/06 05:32:43;;;;;;;22.08;12.00;;;3.40;99.90;;;;;;4931015;29;20130;-81
2023/12/06 05:35:10;;;;;;;20.73;12.00;;;3.40;99.90;;;;;;4915866;29;20079;-80
2023/12/06 05:37:37;;;;;;;19.52;12.02;;;3.40;99.90;;;;;;4884561;29;20056;-80
2023/12/06 05:40:06;;;;;;;19.95;11.35;;;3.30;99.90;;;;;;4915458;29;20382;-80
2023/12/06 05:42:33;;;;;;;20.95;12.77;;;3.40;99.90;;;;;;4915776;29;20056;-80
2023/12/06 05:45:05;;;;;;;22.63;12.75;;;3.40;99.90;;;;;;4899761;29;20036;-80
2023/12/06 05:47:32;;;;;;;18.70;12.13;;;3.40;99.90;;;;;;4885285;29;20079;-80
2023/12/06 05:49:59;;;;;;;19.98;12.32;;;3.40;99.90;;;;;;4884456;29;20056;-80
2023/12/06 05:52:26;;;;;;;17.95;9.75;;;3.40;99.90;;;;;;4915915;29;20343;-80
2023/12/06 05:54:53;;;;;;;16.52;9.80;;;3.40;99.90;;;;;;4899875;29;20091;-80
2023/12/06 05:57:20;;;;;;;14.98;8.13;;;3.40;99.90;;;;;;4915490;29;20473;-80
2023/12/06 05:59:47;;;;;;;15.18;8.68;;;3.40;99.90;;;;;;4909252;29;20060;-79
2023/12/06 06:02:14;;;;;;;20.10;11.52;;;3.50;99.90;;;;;;4899291;29;20396;-80
2023/12/06 06:04:41;;;;;;;21.23;12.18;;;3.50;99.90;;;;;;4915339;29;20059;-80
2023/12/06 06:07:09;;;;;;;21.40;11.52;;;3.40;99.90;;;;;;4916350;29;20040;-80
2023/12/06 06:09:36;;;;;;;19.17;10.50;;;3.50;99.90;;;;;;4884577;29;20052;-80
2023/12/06 06:12:43;;;;;;;16.85;9.63;;;3.50;99.90;;;;;;4906922;29;20059;-80
2023/12/06 06:15:10;;;;;;;17.83;10.05;;;3.50;99.90;;;;;;4916215;29;20527;-80
2023/12/06 06:17:38;;;;;;;15.65;8.90;;;3.50;99.90;;;;;;4914871;29;20044;-80
2023/12/06 06:20:06;;;;;;;14.93;8.52;;;3.50;99.90;;;;;;4899744;29;20457;-80
2023/12/06 06:22:33;;;;;;;15.18;9.63;;;3.50;99.90;;;;;;4912890;29;20132;-80
2023/12/06 06:25:00;;;;;;;14.73;9.32;;;3.60;99.90;;;;;;4906230;29;20044;-80
2023/12/06 06:27:27;;;;;;;15.55;9.23;;;3.60;99.90;;;;;;4917304;29;20068;-80
2023/12/06 06:29:54;;;;;;;16.35;9.75;;;3.60;99.90;;;;;;4916139;29;20052;-80
2023/12/06 06:32:21;;;;;;;15.50;9.77;;;3.60;99.90;;;;;;4899430;29;20049;-80
2023/12/06 06:34:48;;;;;;;16.17;9.52;;;3.60;99.90;;;;;;4932210;29;20481;-80
2023/12/06 06:37:18;;;;;;;18.48;10.48;;;3.60;99.90;;;;;;4918477;29;20080;-82
2023/12/06 06:39:48;;;;;;;18.10;10.20;;;3.60;99.90;;;;;;4905601;29;20465;-80
2023/12/06 06:42:15;;;;;;;18.75;10.30;;;3.60;99.90;;;;;;4939357;29;20048;-80
2023/12/06 06:44:44;;;;;;;19.35;11.45;;;3.60;99.90;;;;;;4918067;29;20568;-80
2023/12/06 06:47:22;;;;;;;21.48;12.18;;;3.70;99.90;;;;;;4918301;29;20508;-80
2023/12/06 06:49:50;;;;;;;21.77;12.48;;;3.70;99.90;;;;;;4918619;29;20052;-84
2023/12/06 06:52:17;;;;;;;22.42;12.13;;;3.70;99.90;;;;;;4936343;29;20042;-87
2023/12/06 06:55:07;;;;;;;25.27;13.70;;;3.70;99.90;;;;;;4922168;29;20139;-85
2023/12/06 06:58:05;;;;;;;21.23;12.00;;;3.70;99.90;;;;;;4933238;29;20059;-86
2023/12/06 07:00:36;;;;;;;24.58;12.98;;;3.70;99.90;;;;;;4918124;29;20096;-80
2023/12/06 07:03:43;;;;;;;;;;;;;;;;;;;;;
2023/12/06 07:06:51;;;;;;;16.45;9.88;;;3.80;99.90;;;;;;4931545;29;20064;-87
2023/12/06 07:10:09;;;;;;;20.23;10.48;;;3.80;99.90;;;;;;4926970;29;20040;-86
2023/12/06 07:12:38;;;;;;;20.70;10.15;;;3.80;99.90;;;;;;4906472;29;20071;-84
2023/12/06 07:15:13;;;;;;;19.58;11.15;;;3.80;99.90;;;;;;4921619;29;20048;-85
2023/12/06 07:17:51;;;;;;;15.30;8.70;;;3.80;99.90;;;;;;4932348;29;20044;-85
2023/12/06 07:20:18;;;;;;;17.00;10.27;;;3.80;99.90;;;;;;4933464;29;20056;-84
2023/12/06 07:22:46;;;;;;;17.08;11.10;;;3.80;99.90;;;;;;4917917;29;20119;-85
2023/12/06 07:25:15;;;;;;;15.25;9.50;;;3.90;99.90;;;;;;4933607;28;20458;-86
2023/12/06 07:27:44;;;;;;;14.43;9.30;;;3.90;99.90;;;;;;4933659;29;20481;-84
2023/12/06 07:30:36;;;;;;;15.73;8.85;;;3.90;99.90;;;;;;4933848;29;20508;-87
2023/12/06 07:33:04;;;;;;;16.73;9.95;;;3.90;99.90;;;;;;4914748;29;20044;-84
2023/12/06 07:35:34;;;;;;;19.25;11.40;;;3.90;99.90;;;;;;4917569;29;20142;-88
2023/12/06 07:41:21;;;;;;;17.30;9.55;;;3.90;99.90;;;;;;4888441;29;20461;-86
2023/12/06 07:43:48;;;;;;;18.95;10.25;;;3.90;99.90;;;;;;4933198;29;20111;-80
2023/12/06 07:46:15;;;;;;;16.20;10.35;;;4.00;99.90;;;;;;4916415;29;20374;-80
2023/12/06 07:48:43;;;;;;;16.27;10.32;;;4.00;99.90;;;;;;4917251;29;20055;-80
2023/12/06 07:51:11;;;;;;;15.60;9.43;;;4.00;99.90;;;;;;4932916;29;20084;-80
2023/12/06 07:53:38;;;;;;;15.50;8.55;;;4.00;99.90;;;;;;4901554;29;20044;-79
2023/12/06 07:56:06;;;;;;;15.98;9.73;;;4.00;99.90;;;;;;4901829;29;20052;-79
2023/12/06 07:58:33;;;;;;;16.42;9.32;;;4.00;99.90;;;;;;4917610;29;20059;-80
2023/12/06 08:01:00;;;;;;;19.05;11.18;;;4.00;99.90;;;;;;4933606;29;20044;-80
2023/12/06 08:03:31;;;;;;;17.52;10.30;;;4.00;99.90;;;;;;4901272;29;20063;-79
2023/12/06 08:06:01;;;;;;;15.18;9.65;;;4.00;99.90;;;;;;4936910;29;20044;-79
2023/12/06 08:08:33;;;;;;;15.75;8.90;;;4.10;99.90;;;;;;4917809;29;20062;-79
2023/12/06 08:11:00;;;;;;;13.32;8.35;;;4.00;99.90;;;;;;4932705;28;20052;-79
2023/12/06 08:13:27;;;;;;;15.23;8.80;;;4.10;99.90;;;;;;4917126;29;20043;-79
2023/12/06 08:15:55;;;;;;;15.98;8.88;;;4.10;99.90;;;;;;4930274;29;20048;-78
2023/12/06 08:18:22;;;;;;;14.68;8.77;;;4.10;99.90;;;;;;4909351;29;20079;-78
2023/12/06 08:20:49;;;;;;;21.20;10.82;;;4.10;99.90;;;;;;4934644;29;20408;-78
2023/12/06 08:23:16;;;;;;;15.30;8.75;;;4.10;99.90;;;;;;4932190;29;20055;-79
2023/12/06 08:25:44;;;;;;;17.40;8.77;;;4.10;99.90;;;;;;4918538;29;20400;-79
2023/12/06 08:28:12;;;;;;;15.88;8.43;;;4.20;99.90;;;;;;4904957;29;20043;-80
2023/12/06 08:30:40;;;;;;;14.73;8.77;;;4.20;99.90;;;;;;4904187;29;20461;-79
2023/12/06 08:33:07;;;;;;;16.05;8.50;;;4.20;99.90;;;;;;4919751;29;20111;-79
2023/12/06 08:35:35;;;;;;;16.60;8.90;;;4.20;99.90;;;;;;4925457;29;20147;-79
2023/12/06 08:38:02;;;;;;;13.70;8.48;;;4.20;99.90;;;;;;4919847;29;20048;-79
2023/12/06 08:40:29;;;;;;;14.85;8.90;;;4.20;99.90;;;;;;4904741;29;20052;-80
2023/12/06 08:42:56;;;;;;;15.40;8.40;;;4.30;99.90;;;;;;4898530;29;20051;-78
2023/12/06 08:45:23;;;;;;;13.75;7.93;;;4.30;99.90;;;;;;4932550;29;20127;-79
2023/12/06 08:47:51;;;;;;;14.80;8.65;;;4.30;99.90;;;;;;4910205;29;20052;-78
2023/12/06 08:50:18;;;;;;;15.70;8.40;;;4.30;99.90;;;;;;4919297;29;20386;-78
2023/12/06 08:52:45;;;;;;;13.57;8.27;;;4.30;99.90;;;;;;4919008;29;20127;-78
2023/12/06 08:55:12;;;;;;;11.32;6.47;;;4.30;99.90;;;;;;4887651;29;20047;-78
2023/12/06 08:57:40;;;;;;;10.35;6.57;;;4.40;99.90;;;;;;4903195;29;20107;-78
2023/12/06 09:00:11;;;;;;;15.85;8.27;;;4.40;99.90;;;;;;4926571;29;20044;-78
2023/12/06 09:02:42;;;;;;;13.52;7.43;;;4.40;99.90;;;;;;4903922;29;20441;-78
2023/12/06 09:05:12;;;;;;;12.45;7.68;;;4.40;99.90;;;;;;4925556;29;20111;-79
2023/12/06 09:07:41;;;;;;;14.80;7.15;;;4.40;99.90;;;;;;4903754;29;20500;-78
2023/12/06 09:10:08;;;;;;;15.93;9.18;;;4.40;99.90;;;;;;4940091;29;20061;-78
2023/12/06 09:12:35;;;;;;;15.20;8.75;;;4.50;99.90;;;;;;4922020;29;20070;-78
2023/12/06 09:15:04;;;;;;;12.93;8.35;;;4.50;99.90;;;;;;4934544;29;20154;-78
2023/12/06 09:17:35;;;;;;;13.68;7.72;;;4.40;99.90;;;;;;4934621;29;20046;-78
2023/12/06 09:20:03;;;;;;;13.57;6.78;;;4.50;99.90;;;;;;4919547;29;20062;-78
2023/12/06 09:22:30;;;;;;;12.40;8.55;;;4.50;99.90;;;;;;4927426;29;20047;-78
2023/12/06 09:24:57;;;;;;;12.85;7.90;;;4.40;99.90;;;;;;4909659;29;20480;-78
2023/12/06 09:27:24;;;;;;;12.98;8.05;;;4.50;99.90;;;;;;4903092;29;20111;-79
2023/12/06 09:29:52;;;;;;;13.13;7.63;;;4.50;99.90;;;;;;4887711;29;20509;-78
2023/12/06 09:32:19;;;;;;;11.73;7.47;;;4.50;99.90;;;;;;4898357;29;20066;-79
2023/12/06 09:34:46;;;;;;;13.75;7.80;;;4.50;99.90;;;;;;4907072;29;20482;-79
2023/12/06 09:37:16;;;;;;;14.82;7.45;;;4.50;99.90;;;;;;4910015;29;20051;-79
2023/12/06 09:39:43;;;;;;;11.85;7.05;;;4.50;99.90;;;;;;4936652;29;20047;-79
2023/12/06 09:42:11;;;;;;;11.13;7.45;;;4.60;99.90;;;;;;4923514;29;20086;-79
2023/12/06 09:44:41;;;;;;;16.02;8.73;;;4.60;99.90;;;;;;4918660;29;20047;-79
2023/12/06 09:47:08;;;;;;;11.98;7.43;;;4.60;99.90;;;;;;4937706;29;20059;-79
2023/12/06 09:49:35;;;;;;;11.40;7.45;;;4.60;99.90;;;;;;4939730;29;20044;-79
2023/12/06 09:52:10;;;;;;;12.50;7.10;;;4.70;99.90;;;;;;4908011;29;20126;-81
2023/12/06 09:54:43;;;;;;;12.23;6.93;;;4.60;99.90;;;;;;4943369;29;20458;-78
2023/12/06 09:57:13;;;;;;;11.48;7.38;;;4.60;99.90;;;;;;4936976;29;20051;-78
2023/12/06 09:59:40;;;;;;;10.75;6.53;;;4.70;99.90;;;;;;4879445;29;20055;-78
2023/12/06 10:02:07;;;;;;;10.65;6.47;;;4.60;99.90;;;;;;4947812;29;20102;-79
2023/12/06 10:04:35;;;;;;;12.68;8.13;;;4.70;99.90;;;;;;4918596;29;20068;-79
2023/12/06 10:07:03;;;;;;;14.35;8.80;;;4.70;99.90;;;;;;4918657;29;20056;-83
2023/12/06 10:09:30;;;;;;;12.50;8.00;;;4.70;99.90;;;;;;4935545;29;20255;-79
2023/12/06 10:12:11;;;;;;;13.52;8.35;;;4.70;99.90;;;;;;4926378;29;20138;-79
2023/12/06 10:14:38;;;;;;;11.82;7.47;;;4.80;99.90;;;;;;4928814;29;20043;-88
2023/12/06 10:17:10;;;;;;;12.45;7.10;;;4.90;99.90;;;;;;4927389;29;20047;-89
2023/12/06 10:19:37;;;;;;;13.25;8.65;;;4.90;99.90;;;;;;4949360;29;20055;-90
2023/12/06 10:22:06;;;;;;;13.52;7.82;;;4.90;99.90;;;;;;4938372;29;20134;-87
2023/12/06 10:24:41;;;;;;;10.77;6.80;;;4.90;99.90;;;;;;4914120;29;20047;-85
2023/12/06 10:27:12;;;;;;;15.45;9.20;;;4.80;99.90;;;;;;4937759;29;20221;-84
2023/12/06 10:29:43;;;;;;;13.80;8.55;;;4.80;99.90;;;;;;4922774;29;20130;-89
2023/12/06 10:32:27;;;;;;;12.68;7.53;;;4.80;99.90;;;;;;4938215;29;20082;-84
2023/12/06 10:35:24;;;;;;;12.27;7.85;;;4.70;99.90;;;;;;4929516;29;20059;-89
2023/12/06 10:37:55;;;;;;;13.80;8.98;;;4.70;99.90;;;;;;4908920;29;20044;-88
2023/12/06 10:40:23;;;;;;;14.30;9.07;;;4.70;99.90;;;;;;4937758;29;20071;-86
2023/12/06 10:43:01;;;;;;;12.90;7.90;;;4.80;99.90;;;;;;4941442;29;20079;-85
2023/12/06 10:45:33;;;;;;;17.02;9.13;;;4.80;99.90;;;;;;4950660;29;20079;-87
2023/12/06 10:48:16;;;;;;;14.13;8.75;;;4.80;99.90;;;;;;4933237;29;20048;-88
2023/12/06 10:50:44;;;;;;;15.13;8.50;;;4.80;99.90;;;;;;4937738;29;20054;-83
2023/12/06 10:53:32;;;;;;;17.42;10.10;;;4.80;99.90;;;;;;4942090;29;20044;-85
2023/12/06 10:56:00;;;;;;;14.73;9.48;;;4.80;99.90;;;;;;4921778;29;20047;-80
2023/12/06 10:58:29;;;;;;;16.90;8.95;;;4.80;99.90;;;;;;4934052;29;20059;-80
2023/12/06 11:00:58;;;;;;;12.93;8.20;;;4.90;99.90;;;;;;4895126;29;20055;-79
2023/12/06 11:03:29;;;;;;;12.15;7.20;;;4.90;99.90;;;;;;4941745;29;20054;-85
2023/12/06 11:06:35;;;;;;;13.80;8.05;;;4.90;99.90;;;;;;4925351;28;20055;-86
2023/12/06 11:09:14;;;;;;;14.15;8.77;;;4.90;99.90;;;;;;4924477;29;20074;-84
2023/12/06 11:12:05;;;;;;;16.25;8.98;;;4.90;99.90;;;;;;4938125;29;20380;-79
2023/12/06 11:22:59;;;;;;;13.65;7.75;;;5.00;99.90;;;;;;4938040;29;20035;-87
2023/12/06 11:26:58;;;;;;;14.27;8.30;;;4.90;99.90;;;;;;4856703;29;20662;-84
2023/12/06 11:35:19;;;;;;;10.60;6.18;;;5.00;99.90;;;;;;4861807;29;20101;-84
2023/12/06 11:38:07;;;;;;;12.27;7.30;;;5.00;99.90;;;;;;4844919;29;20041;-81
2023/12/06 11:41:06;;;;;;;14.60;8.15;;;5.10;99.90;;;;;;4858601;29;20537;-81
2023/12/06 11:43:38;;;;;;;11.20;7.43;;;5.10;99.90;;;;;;4839834;29;20128;-81
2023/12/06 11:46:10;;;;;;;12.55;7.53;;;5.20;99.90;;;;;;4826961;29;20418;-79
2023/12/06 11:48:43;;;;;;;10.82;7.60;;;5.20;99.90;;;;;;4854601;29;20538;-78
2023/12/06 11:51:31;;;;;;;15.57;9.05;;;5.20;99.90;;;;;;4860084;29;20061;-83
2023/12/06 11:54:27;;;;;;;12.48;8.57;;;5.30;99.90;;;;;;4847357;29;20053;-83
2023/12/06 11:57:21;;;;;;;11.90;7.97;;;5.30;99.90;;;;;;4905029;29;20150;-82
2023/12/06 11:59:49;;;;;;;8.43;5.68;;;5.30;99.90;;;;;;4904870;29;20056;-82
2023/12/06 12:02:17;;;;;;;10.98;7.80;;;5.30;99.90;;;;;;4937943;29;20058;-82
2023/12/06 12:04:45;;;;;;;13.38;7.55;;;5.30;99.90;;;;;;4920691;29;20400;-85
2023/12/06 12:08:01;;;;;;;12.68;8.00;;;5.30;99.90;;;;;;4925765;29;20094;-84
2023/12/06 12:14:49;;;;;;;9.88;7.18;;;5.40;99.90;;;;;;4937608;29;20043;-84
2023/12/06 12:17:18;;;;;;;12.18;7.35;;;5.50;99.90;;;;;;4935931;29;20044;-85
2023/12/06 12:20:47;;;;;;;11.68;7.07;;;5.60;99.90;;;;;;4864445;29;20544;-86
2023/12/06 12:23:14;;;;;;;11.90;7.50;;;5.70;99.90;;;;;;4866140;29;20049;-84
2023/12/06 12:25:51;;;;;;;13.23;9.13;;;5.80;99.90;;;;;;4859802;29;20057;-85
2023/12/06 12:28:24;;;;;;;15.25;8.68;;;5.90;99.90;;;;;;4861478;29;20522;-88
2023/12/06 12:31:04;;;;;;;12.65;8.32;;;5.90;99.90;;;;;;4861138;29;20050;-86
2023/12/06 12:33:32;;;;;;;10.50;7.28;;;6.00;99.90;;;;;;4859929;29;20586;-86
2023/12/06 12:36:00;;;;;;;10.32;6.78;;;6.00;99.90;;;;;;4860335;29;20144;-85
2023/12/06 12:38:27;;;;;;;12.50;7.57;;;6.10;99.90;;;;;;4913160;29;20063;-86
2023/12/06 12:40:56;;;;;;;10.13;6.65;;;6.10;99.90;;;;;;4936229;29;20945;-86
2023/12/06 12:43:24;;;;;;;13.13;7.40;;;6.20;99.90;;;;;;4920566;29;20050;-81
2023/12/06 12:45:52;;;;;;;12.35;6.75;;;6.30;99.90;;;;;;4936834;29;20046;-81
2023/12/06 12:48:19;;;;;;;16.45;7.57;;;6.30;99.90;;;;;;4919398;29;20083;-83
2023/12/06 12:54:29;;;;;;;15.57;9.00;;;6.30;99.90;;;;;;4935563;29;20050;-88
2023/12/06 12:57:08;;;;;;;16.45;9.20;;;6.30;99.70;;;;;;4871397;29;20049;-88
2023/12/06 13:00:38;;;;;;;14.90;9.20;;;6.20;99.70;;;;;;4922705;29;20138;-86
2023/12/06 13:11:32;;;;;;;14.75;8.45;;;6.20;99.60;;;;;;4948667;29;20052;-83
2023/12/06 13:14:02;;;;;;;12.68;7.15;;;6.30;99.60;;;;;;4935015;29;20063;-85
2023/12/06 13:17:25;;;;;;;;;;;;;;;;;;;;;
2023/12/06 13:20:22;;;;;;;10.95;6.20;;;6.50;99.50;;;;;;4919467;29;20071;-85
2023/12/06 13:31:09;;;;;;;10.27;6.07;;;6.40;99.50;;;;;;4912315;29;20489;-85
2023/12/06 13:34:51;;;;;;;11.10;7.20;;;6.30;99.50;;;;;;4879748;29;20188;-84
2023/12/06 13:37:18;;;;;;;9.65;5.60;;;6.30;99.60;;;;;;4897066;29;20036;-83
2023/12/06 13:39:46;;;;;;;11.48;6.63;;;6.30;99.70;;;;;;4884314;29;20096;-83
2023/12/06 13:42:17;;;;;;;8.68;5.22;;;6.30;99.60;;;;;;4912988;29;20064;-86
2023/12/06 13:45:09;;;;;;;9.57;5.88;;;6.30;99.60;;;;;;4912334;29;20052;-87
2023/12/06 13:48:13;;;;;;;;;;;;;;;;;;;;;